Time;durP1;ratioP1;P1;durP2;ratioP2;P2;SDS_P1;SDS_P2;PMS_P1;PMS_P2;Temp;Humidity;BMP_temperature;BMP_pressure;BME280_temperature;BME280_humidity;BME280_pressure;Samples;Min_cycle;Max_cycle;Signal;HPM_P1;HPM_P2
2022/07/04 00:00:51;;;;;;;0.35;0.22;;;21.30;66.40;;;;;;6215957;23;20005;-75
2022/07/04 00:03:16;;;;;;;1.65;0.25;;;21.30;66.50;;;;;;6215721;23;20008;-75
2022/07/04 00:05:42;;;;;;;0.47;0.20;;;21.30;66.50;;;;;;6215851;23;20054;-75
2022/07/04 00:08:07;;;;;;;2.38;0.30;;;21.30;66.40;;;;;;6216019;23;20005;-76
2022/07/04 00:10:33;;;;;;;2.28;0.47;;;21.30;66.40;;;;;;6164390;23;19996;-76
2022/07/04 00:12:59;;;;;;;0.52;0.28;;;21.30;66.40;;;;;;6189447;23;20011;-76
2022/07/04 00:15:24;;;;;;;0.40;0.20;;;21.30;66.50;;;;;;6215578;23;20020;-76
2022/07/04 00:17:50;;;;;;;1.08;0.20;;;21.30;66.50;;;;;;6164547;23;20075;-76
2022/07/04 00:20:16;;;;;;;0.57;0.30;;;21.30;66.50;;;;;;6189238;23;20036;-76
2022/07/04 00:22:42;;;;;;;0.65;0.17;;;21.30;66.50;;;;;;6215514;23;20004;-76
2022/07/04 00:25:07;;;;;;;0.75;0.65;;;21.30;66.50;;;;;;6189420;23;20054;-76
2022/07/04 00:27:33;;;;;;;0.22;0.20;;;21.30;66.60;;;;;;6189114;23;20005;-76
2022/07/04 00:29:59;;;;;;;1.88;0.40;;;21.20;66.50;;;;;;6164185;23;19997;-76
2022/07/04 00:32:25;;;;;;;1.38;0.20;;;21.30;66.70;;;;;;6188729;23;20005;-76
2022/07/04 00:34:50;;;;;;;0.20;0.20;;;21.30;66.50;;;;;;6215748;23;20012;-76
2022/07/04 00:37:16;;;;;;;0.40;0.40;;;21.30;66.60;;;;;;6215417;23;20088;-76
2022/07/04 00:39:42;;;;;;;0.55;0.40;;;21.30;66.60;;;;;;6188789;23;20087;-76
2022/07/04 00:42:07;;;;;;;1.52;0.20;;;21.20;66.50;;;;;;6164420;23;20062;-76
2022/07/04 00:44:36;;;;;;;2.40;0.30;;;21.20;66.50;;;;;;6164056;23;20022;-76
2022/07/04 00:47:02;;;;;;;0.40;0.25;;;21.20;66.60;;;;;;6215638;23;20092;-76
2022/07/04 00:49:28;;;;;;;1.45;0.40;;;21.20;66.60;;;;;;6215428;23;20066;-76
2022/07/04 00:51:53;;;;;;;1.30;0.25;;;21.20;66.60;;;;;;6215717;23;20000;-76
2022/07/04 00:54:21;;;;;;;0.38;0.30;;;21.20;66.70;;;;;;6164137;23;20004;-76
2022/07/04 00:56:46;;;;;;;1.17;0.13;;;21.20;66.70;;;;;;6164938;23;20009;-76
2022/07/04 00:59:12;;;;;;;1.55;0.30;;;21.20;66.70;;;;;;6188927;23;20453;-76
2022/07/04 01:01:37;;;;;;;1.95;0.22;;;21.20;66.70;;;;;;6215348;23;20012;-75
2022/07/04 01:04:04;;;;;;;0.70;0.40;;;21.20;66.90;;;;;;6188782;23;20000;-75
2022/07/04 01:06:29;;;;;;;0.80;0.22;;;21.20;66.80;;;;;;6215530;23;20001;-75
2022/07/04 01:08:55;;;;;;;0.52;0.43;;;21.20;66.80;;;;;;6164038;23;20456;-75
2022/07/04 01:11:21;;;;;;;0.40;0.30;;;21.20;66.80;;;;;;6164122;23;20432;-75
2022/07/04 01:13:46;;;;;;;0.35;0.20;;;21.20;66.90;;;;;;6188335;23;20001;-75
2022/07/04 01:16:12;;;;;;;2.05;0.52;;;21.20;66.80;;;;;;6188688;23;20000;-75
2022/07/04 01:18:38;;;;;;;0.32;0.20;;;21.20;66.80;;;;;;6188559;23;20004;-76
2022/07/04 01:21:04;;;;;;;0.28;0.20;;;21.20;67.80;;;;;;6215321;23;20023;-76
2022/07/04 01:23:30;;;;;;;2.25;0.25;;;21.20;67.00;;;;;;6215109;23;20000;-76
2022/07/04 01:25:56;;;;;;;2.00;0.30;;;21.20;66.90;;;;;;6188602;23;20047;-76
2022/07/04 01:28:22;;;;;;;1.17;0.43;;;21.20;66.90;;;;;;6188259;23;20001;-76
2022/07/04 01:30:48;;;;;;;1.33;0.20;;;21.20;67.00;;;;;;6215237;23;20307;-76
2022/07/04 01:33:14;;;;;;;5.57;0.45;;;21.20;66.90;;;;;;6215108;23;20004;-76
2022/07/04 01:35:40;;;;;;;0.65;0.20;;;21.20;66.90;;;;;;6164058;23;20004;-76
2022/07/04 01:38:06;;;;;;;0.25;0.15;;;21.20;67.00;;;;;;6188438;23;20318;-76
2022/07/04 01:40:31;;;;;;;0.35;0.22;;;21.20;66.90;;;;;;6188538;23;20425;-76
2022/07/04 01:42:58;;;;;;;0.22;0.22;;;21.20;66.90;;;;;;6215101;23;20025;-76
2022/07/04 01:45:24;;;;;;;0.20;0.20;;;21.10;66.90;;;;;;6215702;23;20447;-76
2022/07/04 01:47:50;;;;;;;2.50;0.10;;;21.20;66.90;;;;;;6190296;23;19997;-76
2022/07/04 01:50:15;;;;;;;0.45;0.30;;;21.10;66.90;;;;;;6217496;23;20004;-76
2022/07/04 01:52:41;;;;;;;0.45;0.30;;;21.10;66.90;;;;;;6217174;23;20421;-76
2022/07/04 01:55:08;;;;;;;0.63;0.20;;;21.10;66.90;;;;;;6190601;23;20000;-76
2022/07/04 01:57:34;;;;;;;0.73;0.25;;;21.10;66.90;;;;;;6216894;23;20008;-76
2022/07/04 02:02:44;;;;;;;0.25;0.10;;;21.10;66.90;;;;;;6217049;23;20081;-76
2022/07/04 02:05:09;;;;;;;0.50;0.20;;;21.10;67.00;;;;;;6217158;23;19997;-76
2022/07/04 02:07:35;;;;;;;0.20;0.20;;;21.10;66.90;;;;;;6190256;23;20004;-76
2022/07/04 02:10:01;;;;;;;0.82;0.20;;;21.10;66.90;;;;;;6216858;23;20007;-76
2022/07/04 02:15:10;;;;;;;0.73;0.20;;;21.10;66.90;;;;;;6173262;23;20019;-76
2022/07/04 02:17:36;;;;;;;0.60;0.30;;;21.10;66.90;;;;;;6190286;23;20004;-76
2022/07/04 02:20:02;;;;;;;0.45;0.13;;;21.10;68.00;;;;;;6190655;23;20040;-76
2022/07/04 02:22:27;;;;;;;0.28;0.20;;;21.10;66.90;;;;;;6190447;23;20012;-76
2022/07/04 02:24:53;;;;;;;0.30;0.30;;;21.10;66.90;;;;;;6190366;23;20004;-75
2022/07/04 02:27:19;;;;;;;0.30;0.25;;;21.00;66.80;;;;;;6190221;23;20001;-76
2022/07/04 02:29:45;;;;;;;0.47;0.20;;;21.00;66.90;;;;;;6216671;23;20504;-76
2022/07/04 02:32:10;;;;;;;0.50;0.22;;;21.00;67.00;;;;;;6216934;23;20005;-75
2022/07/04 02:34:36;;;;;;;1.80;0.40;;;21.00;66.90;;;;;;6216784;23;20000;-75
2022/07/04 02:37:02;;;;;;;0.95;0.20;;;21.00;67.00;;;;;;6216681;23;20016;-75
2022/07/04 02:39:27;;;;;;;0.77;0.30;;;21.00;67.10;;;;;;6216900;23;20348;-75
2022/07/04 02:41:53;;;;;;;0.45;0.20;;;21.00;67.00;;;;;;6190018;23;20004;-75
2022/07/04 02:44:19;;;;;;;0.28;0.28;;;21.00;67.10;;;;;;6190212;23;20008;-76
2022/07/04 02:46:45;;;;;;;2.05;0.77;;;21.00;67.00;;;;;;6216789;23;20001;-75
2022/07/04 02:49:10;;;;;;;1.55;0.38;;;21.00;67.10;;;;;;6190149;23;20081;-76
2022/07/04 02:51:36;;;;;;;0.50;0.20;;;21.00;67.10;;;;;;6190090;23;20000;-76
2022/07/04 02:54:02;;;;;;;0.30;0.20;;;21.00;67.10;;;;;;6190214;23;20000;-76
2022/07/04 02:56:27;;;;;;;0.20;0.20;;;21.00;67.10;;;;;;6140454;23;20005;-76
2022/07/04 02:58:53;;;;;;;0.30;0.30;;;21.00;67.10;;;;;;6189741;23;20027;-76
2022/07/04 03:01:19;;;;;;;0.60;0.22;;;21.00;67.10;;;;;;6190478;23;20005;-76
2022/07/04 03:03:45;;;;;;;0.43;0.35;;;21.00;67.20;;;;;;6189915;23;20008;-76
2022/07/04 03:06:10;;;;;;;0.17;0.10;;;21.00;67.20;;;;;;6165510;23;20425;-76
2022/07/04 03:08:36;;;;;;;0.30;0.20;;;21.00;67.20;;;;;;6216439;23;20071;-76
2022/07/04 03:11:02;;;;;;;0.60;0.40;;;21.00;67.20;;;;;;6189872;23;20071;-76
2022/07/04 03:13:27;;;;;;;0.40;0.30;;;21.00;67.30;;;;;;6190185;23;20001;-76
2022/07/04 03:15:53;;;;;;;0.52;0.10;;;21.00;67.20;;;;;;6216612;23;20011;-76
2022/07/04 03:18:19;;;;;;;0.73;0.30;;;21.00;67.40;;;;;;6164991;23;20437;-76
2022/07/04 03:20:44;;;;;;;0.88;0.20;;;21.00;67.30;;;;;;6189990;23;20051;-76
2022/07/04 03:23:10;;;;;;;4.85;0.40;;;21.00;67.20;;;;;;6165101;23;20004;-76
2022/07/04 03:25:36;;;;;;;0.47;0.30;;;21.00;67.30;;;;;;6216284;23;20001;-76
2022/07/04 03:28:01;;;;;;;1.08;0.30;;;21.00;67.30;;;;;;6216531;23;20001;-76
2022/07/04 03:30:27;;;;;;;1.33;0.10;;;20.90;67.30;;;;;;6216210;23;20446;-76
2022/07/04 03:32:53;;;;;;;0.45;0.30;;;20.90;67.30;;;;;;6189771;23;20001;-76
2022/07/04 03:35:19;;;;;;;0.50;0.20;;;20.90;67.30;;;;;;6190179;23;20008;-76
2022/07/04 03:37:44;;;;;;;0.43;0.20;;;20.90;67.30;;;;;;6216029;23;20016;-76
2022/07/04 03:40:10;;;;;;;0.32;0.20;;;20.90;67.30;;;;;;6189649;23;20419;-76
2022/07/04 03:42:36;;;;;;;0.55;0.22;;;20.90;67.30;;;;;;6189744;23;20005;-76
2022/07/04 03:45:01;;;;;;;0.52;0.35;;;20.90;67.30;;;;;;6189581;23;19997;-76
2022/07/04 03:47:27;;;;;;;0.68;0.28;;;20.90;67.50;;;;;;6189915;23;20001;-76
2022/07/04 03:49:53;;;;;;;0.45;0.15;;;20.90;67.40;;;;;;6189396;23;19997;-76
2022/07/04 03:52:18;;;;;;;0.20;0.10;;;20.90;67.40;;;;;;6216336;23;20329;-76
2022/07/04 03:54:44;;;;;;;0.30;0.15;;;20.90;67.40;;;;;;6215686;23;20001;-76
2022/07/04 03:57:10;;;;;;;0.43;0.30;;;20.90;67.50;;;;;;6164740;23;20011;-76
2022/07/04 03:59:35;;;;;;;2.38;0.20;;;20.90;67.50;;;;;;6216286;23;20337;-76
2022/07/04 04:02:01;;;;;;;0.60;0.20;;;20.90;67.50;;;;;;6215740;23;20020;-76
2022/07/04 04:07:10;;;;;;;0.20;0.15;;;20.90;67.50;;;;;;6193527;23;20062;-75
2022/07/04 04:09:36;;;;;;;0.20;0.20;;;20.90;67.50;;;;;;6215416;23;20076;-76
2022/07/04 04:12:02;;;;;;;0.22;0.20;;;20.90;67.60;;;;;;6189270;23;20004;-76
2022/07/04 04:14:27;;;;;;;0.93;0.40;;;20.90;67.60;;;;;;6215943;23;20426;-75
2022/07/04 04:16:53;;;;;;;0.57;0.40;;;20.80;67.50;;;;;;6189039;23;20016;-75
2022/07/04 04:19:19;;;;;;;0.20;0.13;;;20.90;67.60;;;;;;6216002;23;20076;-75
2022/07/04 04:21:45;;;;;;;0.32;0.13;;;20.90;67.60;;;;;;6189120;23;20008;-75
2022/07/04 04:24:10;;;;;;;0.55;0.30;;;20.80;67.60;;;;;;6215635;23;20008;-75
2022/07/04 04:26:36;;;;;;;0.20;0.20;;;20.80;67.70;;;;;;6189233;23;20019;-75
2022/07/04 04:29:02;;;;;;;0.63;0.20;;;20.80;67.70;;;;;;6164205;23;20309;-75
2022/07/04 04:31:27;;;;;;;1.42;0.38;;;20.80;67.60;;;;;;6215974;23;19997;-75
2022/07/04 04:33:53;;;;;;;0.57;0.20;;;20.80;67.70;;;;;;6215645;23;20005;-75
2022/07/04 04:36:18;;;;;;;0.55;0.43;;;20.80;67.70;;;;;;6189317;23;20059;-75
2022/07/04 04:38:44;;;;;;;0.10;0.10;;;20.80;67.70;;;;;;6188567;23;20071;-75
2022/07/04 04:41:10;;;;;;;1.55;0.20;;;20.80;67.70;;;;;;6215566;23;20421;-75
2022/07/04 04:43:36;;;;;;;0.10;0.10;;;20.80;67.80;;;;;;6188969;23;20012;-75
2022/07/04 04:46:01;;;;;;;1.65;0.20;;;20.80;67.80;;;;;;6188962;23;20032;-75
2022/07/04 04:48:27;;;;;;;0.40;0.30;;;20.80;67.80;;;;;;6189146;23;20484;-75
2022/07/04 04:50:53;;;;;;;0.22;0.20;;;20.80;67.80;;;;;;6188625;23;19997;-75
2022/07/04 04:53:18;;;;;;;0.77;0.38;;;20.80;67.90;;;;;;6215909;23;20008;-75
2022/07/04 04:55:44;;;;;;;0.43;0.20;;;20.80;67.80;;;;;;6189108;23;20493;-75
2022/07/04 04:58:09;;;;;;;1.30;0.20;;;20.80;68.00;;;;;;6188935;23;20005;-75
2022/07/04 05:00:35;;;;;;;1.23;0.15;;;20.80;67.90;;;;;;6215552;23;20008;-75
2022/07/04 05:03:01;;;;;;;0.40;0.20;;;20.70;67.90;;;;;;6188650;23;20032;-75
2022/07/04 05:05:26;;;;;;;0.10;0.10;;;20.80;67.80;;;;;;6215291;23;20004;-75
2022/07/04 05:07:52;;;;;;;0.65;0.30;;;20.70;67.90;;;;;;6188946;23;20000;-75
2022/07/04 05:10:17;;;;;;;0.30;0.20;;;20.70;67.90;;;;;;6188873;23;20051;-75
2022/07/04 05:12:43;;;;;;;0.35;0.22;;;20.70;67.90;;;;;;6189041;23;20010;-75
2022/07/04 05:15:09;;;;;;;2.17;0.40;;;20.70;68.00;;;;;;6188778;23;20080;-75
2022/07/04 05:17:35;;;;;;;0.90;0.20;;;20.70;68.00;;;;;;6189050;23;20001;-75
2022/07/04 05:20:01;;;;;;;1.73;0.30;;;20.70;68.00;;;;;;6187954;23;20008;-75
2022/07/04 05:22:26;;;;;;;0.20;0.20;;;20.70;68.00;;;;;;6188697;23;20005;-75
2022/07/04 05:24:52;;;;;;;0.20;0.20;;;20.70;68.00;;;;;;6188677;23;20414;-75
2022/07/04 05:27:17;;;;;;;4.85;0.20;;;20.70;68.00;;;;;;6215234;23;19997;-75
2022/07/04 05:29:43;;;;;;;1.65;0.20;;;20.70;67.90;;;;;;6214711;23;20064;-76
2022/07/04 05:32:09;;;;;;;0.20;0.20;;;20.70;67.90;;;;;;6188506;23;20007;-76
2022/07/04 05:34:34;;;;;;;0.20;0.20;;;20.70;67.80;;;;;;6188299;23;20001;-75
2022/07/04 05:37:00;;;;;;;2.40;0.50;;;20.70;67.50;;;;;;6188351;23;20061;-76
2022/07/04 05:39:26;;;;;;;0.82;0.20;;;20.70;67.60;;;;;;6188419;23;20016;-75
2022/07/04 05:41:52;;;;;;;0.98;0.30;;;20.70;67.30;;;;;;6214875;23;20456;-75
2022/07/04 05:44:17;;;;;;;3.72;0.40;;;20.70;66.90;;;;;;6188389;23;20001;-75
2022/07/04 05:46:43;;;;;;;0.60;0.15;;;20.70;67.00;;;;;;6188669;23;20052;-75
2022/07/04 05:49:08;;;;;;;1.50;0.40;;;20.70;67.00;;;;;;6214592;23;20001;-75
2022/07/04 05:51:34;;;;;;;0.25;0.20;;;20.70;67.10;;;;;;6215084;23;20333;-75
2022/07/04 05:54:00;;;;;;;0.57;0.30;;;20.70;67.20;;;;;;6188463;23;20007;-76
2022/07/04 05:56:25;;;;;;;0.40;0.30;;;20.70;67.30;;;;;;6214990;23;20032;-75
2022/07/04 05:58:52;;;;;;;0.65;0.30;;;20.70;67.30;;;;;;6215113;23;20059;-76
2022/07/04 06:01:18;;;;;;;0.47;0.20;;;20.70;67.30;;;;;;6189018;23;20004;-75
2022/07/04 06:03:43;;;;;;;2.08;0.35;;;20.70;67.40;;;;;;6188075;23;20026;-75
2022/07/04 06:06:09;;;;;;;0.75;0.20;;;20.60;67.30;;;;;;6188306;23;20528;-75
2022/07/04 06:08:35;;;;;;;0.10;0.10;;;20.60;67.40;;;;;;6215467;23;20068;-75
2022/07/04 06:11:00;;;;;;;2.15;0.22;;;20.70;67.50;;;;;;6214966;23;20438;-75
2022/07/04 06:13:27;;;;;;;1.67;0.22;;;20.70;67.60;;;;;;6188510;23;20008;-75
2022/07/04 06:15:53;;;;;;;2.05;0.20;;;20.70;67.60;;;;;;6214699;23;20008;-75
2022/07/04 06:18:18;;;;;;;0.80;0.30;;;20.70;67.60;;;;;;6214550;23;20011;-75
2022/07/04 06:20:44;;;;;;;1.20;0.50;;;20.60;67.60;;;;;;6163646;23;20008;-75
2022/07/04 06:23:09;;;;;;;0.80;0.40;;;20.60;67.70;;;;;;6188125;23;20011;-75
2022/07/04 06:25:35;;;;;;;1.10;0.30;;;20.60;67.70;;;;;;6188336;23;20000;-75
2022/07/04 06:28:01;;;;;;;2.00;0.20;;;20.60;67.70;;;;;;6214878;23;20078;-74
2022/07/04 06:30:26;;;;;;;0.30;0.20;;;20.60;67.80;;;;;;6188311;23;20028;-75
2022/07/04 06:32:53;;;;;;;0.38;0.30;;;20.60;67.70;;;;;;6189691;23;20457;-75
2022/07/04 06:35:44;;;;;;;1.25;0.28;;;20.60;67.80;;;;;;6216642;23;20000;-75
2022/07/04 06:38:10;;;;;;;0.10;0.10;;;20.60;67.80;;;;;;6193189;23;20348;-75
2022/07/04 06:40:37;;;;;;;0.70;0.35;;;20.60;67.90;;;;;;6190087;23;20001;-75
2022/07/04 06:43:03;;;;;;;0.77;0.38;;;20.60;67.80;;;;;;6189934;23;20423;-75
2022/07/04 06:45:29;;;;;;;0.28;0.20;;;20.60;67.80;;;;;;6165696;23;20072;-75
2022/07/04 06:47:54;;;;;;;0.70;0.15;;;20.60;67.90;;;;;;6216220;23;20086;-75
2022/07/04 06:50:20;;;;;;;1.88;0.22;;;20.60;68.00;;;;;;6165264;23;19997;-75
2022/07/04 06:52:46;;;;;;;1.15;0.20;;;20.60;68.00;;;;;;6165180;23;20008;-75
2022/07/04 06:55:11;;;;;;;3.75;0.38;;;20.60;68.00;;;;;;6190049;23;20000;-75
2022/07/04 06:57:37;;;;;;;2.75;0.30;;;20.60;68.10;;;;;;6165232;23;20495;-75
2022/07/04 07:00:07;;;;;;;2.00;0.30;;;20.60;68.10;;;;;;6189718;23;20005;-75
2022/07/04 07:02:36;;;;;;;5.25;0.30;;;20.60;68.10;;;;;;6189495;23;20012;-75
2022/07/04 07:05:02;;;;;;;1.08;0.35;;;20.60;68.10;;;;;;6216440;23;19997;-75
2022/07/04 07:07:28;;;;;;;3.03;0.30;;;20.60;68.10;;;;;;6190078;23;20429;-75
2022/07/04 07:09:54;;;;;;;1.55;0.40;;;20.60;68.10;;;;;;6215729;23;20001;-75
2022/07/04 07:12:20;;;;;;;1.80;0.28;;;20.60;68.10;;;;;;6164913;23;20502;-75
2022/07/04 07:14:46;;;;;;;2.58;0.50;;;20.60;68.20;;;;;;6165171;23;20434;-75
2022/07/04 07:17:12;;;;;;;2.92;0.93;;;20.60;68.20;;;;;;6189481;23;20015;-75
2022/07/04 07:19:37;;;;;;;5.25;0.30;;;20.60;68.30;;;;;;6216440;23;20389;-75
2022/07/04 07:22:03;;;;;;;1.08;0.25;;;20.60;68.20;;;;;;6189553;23;20004;-75
2022/07/04 07:24:31;;;;;;;0.15;0.10;;;20.60;68.20;;;;;;6216392;23;20046;-75
2022/07/04 07:26:57;;;;;;;1.40;0.30;;;20.60;68.20;;;;;;6216288;23;20001;-75
2022/07/04 07:29:23;;;;;;;0.60;0.30;;;20.60;68.20;;;;;;6190035;23;20080;-75
2022/07/04 07:31:49;;;;;;;0.70;0.20;;;20.60;68.20;;;;;;6189543;23;20326;-75
2022/07/04 07:34:14;;;;;;;0.70;0.28;;;20.60;68.20;;;;;;6189607;23;20024;-75
2022/07/04 07:36:40;;;;;;;5.22;0.40;;;20.60;68.10;;;;;;6189609;23;20005;-75
2022/07/04 07:39:06;;;;;;;2.05;0.47;;;20.60;68.30;;;;;;6164489;23;20074;-75
2022/07/04 07:41:31;;;;;;;1.83;0.30;;;20.60;68.20;;;;;;6189706;23;20056;-75
2022/07/04 07:43:57;;;;;;;1.95;0.30;;;20.60;67.00;;;;;;6215612;23;20008;-75
2022/07/04 07:46:23;;;;;;;1.17;0.35;;;20.50;66.30;;;;;;6189209;23;20380;-75
2022/07/04 07:48:48;;;;;;;0.88;0.20;;;20.50;66.90;;;;;;6216094;23;20001;-75
2022/07/04 07:51:15;;;;;;;0.20;0.20;;;20.50;66.30;;;;;;6189404;23;20000;-74
2022/07/04 07:53:41;;;;;;;0.68;0.22;;;20.50;66.80;;;;;;6216309;23;20488;-74
2022/07/04 07:56:06;;;;;;;0.20;0.20;;;20.50;66.50;;;;;;6215651;23;20008;-74
2022/07/04 07:58:32;;;;;;;2.13;0.30;;;20.50;67.30;;;;;;6189456;23;20004;-74
2022/07/04 08:00:58;;;;;;;1.00;0.10;;;20.50;66.30;;;;;;6215678;23;20009;-75
2022/07/04 08:06:09;;;;;;;0.30;0.20;;;20.50;66.20;;;;;;6191445;23;20039;-73
2022/07/04 08:08:34;;;;;;;0.93;0.38;;;20.50;66.20;;;;;;6164561;23;19997;-74
2022/07/04 08:11:00;;;;;;;0.63;0.20;;;20.40;66.10;;;;;;6189105;23;20083;-74
2022/07/04 08:13:25;;;;;;;0.40;0.20;;;20.50;66.20;;;;;;6215985;23;20142;-73
2022/07/04 08:15:51;;;;;;;0.30;0.20;;;20.40;66.10;;;;;;6189237;23;20101;-74
2022/07/04 08:18:17;;;;;;;0.70;0.30;;;20.40;66.00;;;;;;6188414;23;20491;-76
2022/07/04 08:20:43;;;;;;;0.52;0.20;;;20.40;66.00;;;;;;6188078;23;20038;-76
2022/07/04 08:23:09;;;;;;;1.05;0.40;;;20.50;64.90;;;;;;6189140;23;19997;-77
2022/07/04 08:25:35;;;;;;;1.08;0.50;;;20.60;64.20;;;;;;6189140;23;20445;-77
2022/07/04 08:28:00;;;;;;;3.25;0.77;;;20.60;63.70;;;;;;6139681;23;20100;-77
2022/07/04 08:30:26;;;;;;;1.75;0.20;;;20.70;63.50;;;;;;6163772;23;20039;-76
2022/07/04 08:32:51;;;;;;;1.63;0.30;;;20.70;62.80;;;;;;6215942;23;20459;-77
2022/07/04 08:35:17;;;;;;;1.58;0.50;;;20.70;62.60;;;;;;6189089;23;20000;-77
2022/07/04 08:37:43;;;;;;;1.17;0.40;;;20.80;62.50;;;;;;6215343;23;20012;-77
2022/07/04 08:40:09;;;;;;;0.73;0.30;;;20.80;62.40;;;;;;6188979;23;20012;-77
2022/07/04 08:42:38;;;;;;;1.00;0.20;;;20.80;62.60;;;;;;6163872;23;20024;-75
2022/07/04 08:45:05;;;;;;;1.67;0.50;;;20.80;61.80;;;;;;6164188;23;20000;-75
2022/07/04 08:47:33;;;;;;;0.50;0.30;;;20.90;62.00;;;;;;6215447;23;20056;-74
2022/07/04 08:50:06;;;;;;;0.65;0.38;;;20.90;61.60;;;;;;6164934;23;20004;-74
2022/07/04 08:52:39;;;;;;;1.45;0.40;;;20.90;60.70;;;;;;6165411;23;20000;-75
2022/07/04 09:00:36;;;;;;;1.35;0.20;;;20.90;59.30;;;;;;6172037;23;20016;-75
2022/07/04 09:03:02;;;;;;;1.13;0.25;;;20.90;58.90;;;;;;6164395;23;20006;-74
2022/07/04 09:05:28;;;;;;;2.03;0.40;;;20.90;58.90;;;;;;6164580;23;20329;-74
2022/07/04 09:07:54;;;;;;;0.77;0.40;;;20.90;58.60;;;;;;6214955;23;19997;-76
2022/07/04 09:10:20;;;;;;;1.17;0.30;;;20.90;58.50;;;;;;6188867;23;20070;-76
2022/07/04 09:12:46;;;;;;;1.58;0.20;;;20.90;58.40;;;;;;6188838;23;20008;-74
2022/07/04 09:15:12;;;;;;;0.50;0.38;;;20.90;58.10;;;;;;6188604;23;20008;-77
2022/07/04 09:17:37;;;;;;;1.10;0.30;;;20.90;58.20;;;;;;6188646;23;20016;-75
2022/07/04 09:20:13;;;;;;;1.02;0.40;;;20.90;57.80;;;;;;6164201;23;20047;-76
2022/07/04 09:22:39;;;;;;;0.77;0.40;;;21.00;58.50;;;;;;6188788;23;20028;-75
2022/07/04 09:25:05;;;;;;;0.82;0.30;;;21.00;58.40;;;;;;6215354;23;20499;-75
2022/07/04 09:27:38;;;;;;;1.10;0.22;;;21.10;58.30;;;;;;6214889;23;20000;-75
2022/07/04 09:30:04;;;;;;;1.45;0.35;;;21.00;57.30;;;;;;6188500;23;20012;-75
2022/07/04 09:32:34;;;;;;;1.27;0.20;;;21.00;57.80;;;;;;6215448;23;20024;-75
2022/07/04 09:34:59;;;;;;;0.88;0.22;;;21.00;57.20;;;;;;6215349;23;20011;-74
2022/07/04 09:37:39;;;;;;;0.45;0.30;;;21.00;57.60;;;;;;6188404;23;20008;-75
2022/07/04 09:40:07;;;;;;;0.88;0.20;;;21.00;56.70;;;;;;6215270;23;20004;-75
2022/07/04 09:42:42;;;;;;;2.47;0.47;;;21.00;56.50;;;;;;6138855;23;20333;-74
2022/07/04 09:45:10;;;;;;;0.22;0.17;;;21.00;56.20;;;;;;6189356;23;20035;-74
2022/07/04 09:47:36;;;;;;;0.20;0.20;;;21.00;55.90;;;;;;6189307;23;20471;-74
2022/07/04 09:50:10;;;;;;;1.45;0.38;;;21.00;56.10;;;;;;6163775;23;20430;-77
2022/07/04 09:52:44;;;;;;;0.80;0.35;;;21.00;56.10;;;;;;6214959;23;20008;-75
2022/07/04 09:55:10;;;;;;;1.33;0.20;;;21.00;56.00;;;;;;6215216;23;20080;-76
2022/07/04 09:57:35;;;;;;;0.73;0.20;;;21.00;56.00;;;;;;6163279;23;20448;-75
2022/07/04 10:00:21;;;;;;;0.63;0.20;;;21.00;56.00;;;;;;6188607;23;20433;-76
2022/07/04 10:02:47;;;;;;;1.45;0.30;;;21.00;55.30;;;;;;6188856;23;20000;-75
2022/07/04 10:05:13;;;;;;;0.95;0.20;;;21.00;55.50;;;;;;6188511;23;20005;-75
2022/07/04 10:07:43;;;;;;;0.43;0.17;;;21.00;55.30;;;;;;6189697;23;20001;-76
2022/07/04 10:10:33;;;;;;;1.27;0.30;;;21.00;55.20;;;;;;6217039;23;19996;-75
2022/07/04 10:13:01;;;;;;;1.08;0.25;;;21.00;55.00;;;;;;6217293;23;20310;-76
2022/07/04 10:15:27;;;;;;;2.25;0.40;;;21.00;55.00;;;;;;6190570;23;20027;-76
2022/07/04 10:17:53;;;;;;;0.47;0.28;;;21.00;55.00;;;;;;6165969;23;20413;-76
2022/07/04 10:20:18;;;;;;;0.28;0.20;;;21.00;54.90;;;;;;6190570;23;20000;-77
2022/07/04 10:22:44;;;;;;;0.55;0.30;;;21.00;54.50;;;;;;6165706;23;20004;-76
2022/07/04 10:25:10;;;;;;;0.82;0.20;;;21.00;54.20;;;;;;6190442;23;20001;-76
2022/07/04 10:27:36;;;;;;;1.02;0.30;;;21.00;53.90;;;;;;6190223;23;20368;-76
2022/07/04 10:30:04;;;;;;;0.30;0.30;;;21.00;53.70;;;;;;6165975;23;20000;-75
2022/07/04 10:32:30;;;;;;;0.55;0.20;;;21.00;55.70;;;;;;6190434;23;20009;-76
2022/07/04 10:34:55;;;;;;;0.57;0.20;;;21.10;54.10;;;;;;6165513;23;20004;-76
2022/07/04 10:37:21;;;;;;;3.00;0.50;;;21.00;53.70;;;;;;6165140;23;20015;-76
2022/07/04 10:39:47;;;;;;;0.52;0.20;;;21.00;53.50;;;;;;6190428;23;20020;-76
2022/07/04 10:42:25;;;;;;;0.95;0.30;;;21.00;53.30;;;;;;6216765;23;20001;-76
2022/07/04 10:44:51;;;;;;;0.65;0.20;;;21.00;53.50;;;;;;6216863;23;20429;-76
2022/07/04 10:47:30;;;;;;;1.60;0.30;;;21.00;53.40;;;;;;6165447;23;20051;-76
2022/07/04 10:49:56;;;;;;;1.63;0.40;;;21.00;53.30;;;;;;6191704;23;20000;-76
2022/07/04 10:52:22;;;;;;;0.50;0.22;;;21.00;53.80;;;;;;6165568;23;20042;-76
2022/07/04 10:54:47;;;;;;;1.65;0.40;;;21.10;53.40;;;;;;6190160;23;20356;-76
2022/07/04 10:57:23;;;;;;;1.02;0.40;;;21.10;53.60;;;;;;6165329;23;20079;-76
2022/07/04 10:59:59;;;;;;;0.82;0.22;;;21.00;53.60;;;;;;6216874;23;20027;-76
2022/07/04 11:02:27;;;;;;;1.02;0.30;;;21.00;53.30;;;;;;6216814;23;20487;-76
2022/07/04 11:04:56;;;;;;;1.48;0.20;;;21.00;53.50;;;;;;6165675;23;19996;-76
2022/07/04 11:07:37;;;;;;;0.38;0.22;;;21.00;53.40;;;;;;6190417;23;20021;-75
2022/07/04 11:10:12;;;;;;;0.75;0.20;;;21.00;53.40;;;;;;6216420;23;20422;-75
2022/07/04 11:12:56;;;;;;;0.50;0.35;;;21.00;53.30;;;;;;6190012;23;20039;-75
2022/07/04 11:15:28;;;;;;;0.63;0.20;;;21.10;53.30;;;;;;6216670;23;20031;-75
2022/07/04 11:17:57;;;;;;;0.90;0.20;;;21.10;53.50;;;;;;6215926;23;20441;-75
2022/07/04 11:20:24;;;;;;;1.35;0.50;;;21.10;53.30;;;;;;6216584;23;20050;-75
2022/07/04 11:22:49;;;;;;;0.95;0.30;;;21.10;53.40;;;;;;6216180;23;20005;-75
2022/07/04 11:25:15;;;;;;;1.52;0.30;;;21.00;53.30;;;;;;6165308;23;20326;-75
2022/07/04 11:27:41;;;;;;;2.13;0.45;;;21.00;54.00;;;;;;6164745;23;20429;-72
2022/07/04 11:30:08;;;;;;;3.30;0.50;;;21.00;53.50;;;;;;6190097;23;20001;-72
2022/07/04 11:32:34;;;;;;;1.00;0.30;;;21.00;53.50;;;;;;6165327;23;20004;-76
2022/07/04 11:35:00;;;;;;;1.05;0.40;;;21.00;53.50;;;;;;6189627;23;20005;-74
2022/07/04 11:37:26;;;;;;;2.85;0.30;;;21.00;53.40;;;;;;6164541;23;20016;-76
2022/07/04 11:39:52;;;;;;;1.23;0.25;;;21.00;53.30;;;;;;6189718;23;20004;-76
2022/07/04 11:45:04;;;;;;;0.52;0.10;;;21.00;53.40;;;;;;6215022;23;20088;-74
2022/07/04 11:47:41;;;;;;;1.20;0.20;;;21.10;53.40;;;;;;6217074;23;20005;-77
2022/07/04 11:50:11;;;;;;;1.23;0.40;;;21.00;53.40;;;;;;6190914;23;20092;-71
2022/07/04 11:52:36;;;;;;;1.98;0.38;;;21.00;53.80;;;;;;6189981;23;20407;-74
2022/07/04 11:55:06;;;;;;;1.48;0.73;;;21.00;53.50;;;;;;6216004;23;20015;-74
2022/07/04 11:57:36;;;;;;;0.98;0.30;;;21.00;53.20;;;;;;6165553;23;20004;-75
2022/07/04 12:00:08;;;;;;;1.02;0.30;;;21.00;53.20;;;;;;6189651;23;20409;-75
2022/07/04 12:02:34;;;;;;;1.77;0.20;;;21.00;53.20;;;;;;6216052;23;20055;-75
2022/07/04 12:05:01;;;;;;;0.68;0.30;;;21.00;53.10;;;;;;6165011;23;20068;-75
2022/07/04 12:07:27;;;;;;;2.28;0.17;;;21.10;53.00;;;;;;6189429;23;20000;-74
2022/07/04 12:09:54;;;;;;;0.90;0.30;;;21.00;52.80;;;;;;6189485;23;20051;-75
2022/07/04 12:12:20;;;;;;;0.52;0.10;;;21.00;53.10;;;;;;6164870;23;20029;-74
2022/07/04 12:15:04;;;;;;;0.40;0.30;;;20.90;53.20;;;;;;6189248;23;20471;-74
2022/07/04 12:17:32;;;;;;;2.72;0.38;;;20.80;53.30;;;;;;6215820;23;20011;-74
2022/07/04 12:19:58;;;;;;;0.63;0.30;;;20.80;53.80;;;;;;6215774;23;20079;-74
2022/07/04 12:22:37;;;;;;;0.50;0.30;;;20.80;54.10;;;;;;6189212;23;20008;-74
2022/07/04 12:25:04;;;;;;;6.22;2.45;;;20.90;54.10;;;;;;6189933;23;20023;-74
2022/07/04 12:27:30;;;;;;;4.70;1.60;;;20.80;54.20;;;;;;6215932;23;19993;-75
2022/07/04 12:29:57;;;;;;;5.10;1.65;;;20.80;54.40;;;;;;6188974;23;20004;-75
2022/07/04 12:32:22;;;;;;;3.25;1.42;;;20.80;54.20;;;;;;6189082;23;20086;-74
2022/07/04 12:34:48;;;;;;;2.50;1.48;;;20.80;54.30;;;;;;6164130;23;20005;-74
2022/07/04 12:37:14;;;;;;;3.75;1.60;;;20.70;54.40;;;;;;6188958;23;20000;-75
2022/07/04 12:39:43;;;;;;;3.50;1.30;;;20.80;54.80;;;;;;6164153;23;20352;-74
2022/07/04 12:42:19;;;;;;;3.53;1.50;;;20.80;54.40;;;;;;6189778;23;20005;-74
2022/07/04 12:44:45;;;;;;;1.85;1.13;;;20.70;54.80;;;;;;6215559;23;20409;-75
2022/07/04 12:47:11;;;;;;;2.03;0.90;;;20.70;54.90;;;;;;6164303;23;20556;-75
2022/07/04 12:49:37;;;;;;;4.18;1.30;;;20.70;54.50;;;;;;6188699;23;20001;-75
2022/07/04 12:52:07;;;;;;;2.20;1.33;;;20.70;55.20;;;;;;6215527;23;20023;-75
2022/07/04 12:54:33;;;;;;;4.15;1.70;;;20.70;55.00;;;;;;6164590;23;20055;-75
2022/07/04 12:57:06;;;;;;;1.50;1.00;;;20.70;55.20;;;;;;6189116;23;20004;-75
2022/07/04 12:59:32;;;;;;;2.85;1.20;;;20.70;55.00;;;;;;6164198;23;20003;-75
2022/07/04 13:01:58;;;;;;;2.03;1.17;;;20.70;55.00;;;;;;6164597;23;19997;-75
2022/07/04 13:04:24;;;;;;;2.05;1.13;;;20.80;55.40;;;;;;6215065;23;20008;-76